sensor_id;sensor_type;location;lat;lon;timestamp;temperature;humidity
15937;DHT22;9163;48.818;8.976;2023-02-01T00:01:25;2.30;99.90
15937;DHT22;9163;48.818;8.976;2023-02-01T00:03:53;2.30;99.90
15937;DHT22;9163;48.818;8.976;2023-02-01T00:06:20;2.30;99.90
15937;DHT22;9163;48.818;8.976;2023-02-01T00:08:47;2.30;99.90
15937;DHT22;9163;48.818;8.976;2023-02-01T00:11:14;2.30;99.90
15937;DHT22;9163;48.818;8.976;2023-02-01T00:13:43;2.30;99.90
15937;DHT22;9163;48.818;8.976;2023-02-01T00:16:12;2.30;99.90
15937;DHT22;9163;48.818;8.976;2023-02-01T00:18:42;2.30;99.90
15937;DHT22;9163;48.818;8.976;2023-02-01T00:21:10;2.40;99.90
15937;DHT22;9163;48.818;8.976;2023-02-01T00:23:38;2.40;99.90
15937;DHT22;9163;48.818;8.976;2023-02-01T00:26:13;2.40;99.90
15937;DHT22;9163;48.818;8.976;2023-02-01T00:28:40;2.40;99.90
15937;DHT22;9163;48.818;8.976;2023-02-01T00:31:09;2.40;99.90
15937;DHT22;9163;48.818;8.976;2023-02-01T00:33:36;2.50;99.90
15937;DHT22;9163;48.818;8.976;2023-02-01T00:36:06;2.50;99.90
15937;DHT22;9163;48.818;8.976;2023-02-01T00:38:36;2.50;99.90
15937;DHT22;9163;48.818;8.976;2023-02-01T00:41:04;2.50;99.90
15937;DHT22;9163;48.818;8.976;2023-02-01T00:43:33;2.60;99.90
15937;DHT22;9163;48.818;8.976;2023-02-01T00:46:01;2.50;99.90
15937;DHT22;9163;48.818;8.976;2023-02-01T00:48:29;2.50;99.90
15937;DHT22;9163;48.818;8.976;2023-02-01T00:50:59;2.50;99.90
15937;DHT22;9163;48.818;8.976;2023-02-01T00:53:26;2.50;99.90
15937;DHT22;9163;48.818;8.976;2023-02-01T00:55:53;2.50;99.90
15937;DHT22;9163;48.818;8.976;2023-02-01T00:58:20;2.50;99.90
15937;DHT22;9163;48.818;8.976;2023-02-01T01:00:49;2.50;99.90
15937;DHT22;9163;48.818;8.976;2023-02-01T01:03:17;2.50;99.90
15937;DHT22;9163;48.818;8.976;2023-02-01T01:05:48;2.50;99.90
15937;DHT22;9163;48.818;8.976;2023-02-01T01:08:16;2.50;99.90
15937;DHT22;9163;48.818;8.976;2023-02-01T01:10:43;2.50;99.90
15937;DHT22;9163;48.818;8.976;2023-02-01T01:13:11;2.50;99.90
15937;DHT22;9163;48.818;8.976;2023-02-01T01:15:39;2.50;99.90
15937;DHT22;9163;48.818;8.976;2023-02-01T01:18:07;2.50;99.90
15937;DHT22;9163;48.818;8.976;2023-02-01T01:20:35;2.50;99.90
15937;DHT22;9163;48.818;8.976;2023-02-01T01:23:05;2.50;99.90
15937;DHT22;9163;48.818;8.976;2023-02-01T01:25:36;2.50;99.90
15937;DHT22;9163;48.818;8.976;2023-02-01T01:28:03;2.50;99.90
15937;DHT22;9163;48.818;8.976;2023-02-01T01:30:31;2.50;99.90
15937;DHT22;9163;48.818;8.976;2023-02-01T01:32:58;2.50;99.90
15937;DHT22;9163;48.818;8.976;2023-02-01T01:35:25;2.50;99.90
15937;DHT22;9163;48.818;8.976;2023-02-01T01:37:52;2.50;99.90
15937;DHT22;9163;48.818;8.976;2023-02-01T01:40:21;2.50;99.90
15937;DHT22;9163;48.818;8.976;2023-02-01T01:42:48;2.50;99.90
15937;DHT22;9163;48.818;8.976;2023-02-01T01:45:22;2.50;99.90
15937;DHT22;9163;48.818;8.976;2023-02-01T01:47:53;2.50;99.90
15937;DHT22;9163;48.818;8.976;2023-02-01T01:50:23;2.40;99.90
15937;DHT22;9163;48.818;8.976;2023-02-01T01:52:53;2.50;99.90
15937;DHT22;9163;48.818;8.976;2023-02-01T01:55:24;2.50;99.90
15937;DHT22;9163;48.818;8.976;2023-02-01T01:57:57;2.50;99.90
15937;DHT22;9163;48.818;8.976;2023-02-01T02:00:25;2.50;99.90
15937;DHT22;9163;48.818;8.976;2023-02-01T02:02:57;2.60;99.90
15937;DHT22;9163;48.818;8.976;2023-02-01T02:05:25;2.60;99.90
15937;DHT22;9163;48.818;8.976;2023-02-01T02:07:58;2.60;99.90
15937;DHT22;9163;48.818;8.976;2023-02-01T02:10:28;2.60;99.90
15937;DHT22;9163;48.818;8.976;2023-02-01T02:13:10;2.60;99.90
15937;DHT22;9163;48.818;8.976;2023-02-01T02:15:43;2.60;99.90
15937;DHT22;9163;48.818;8.976;2023-02-01T02:18:15;2.60;99.90
15937;DHT22;9163;48.818;8.976;2023-02-01T02:24:16;2.60;99.90
15937;DHT22;9163;48.818;8.976;2023-02-01T02:27:02;2.60;99.90
15937;DHT22;9163;48.818;8.976;2023-02-01T02:29:49;2.60;99.90
15937;DHT22;9163;48.818;8.976;2023-02-01T02:35:30;2.60;99.90
15937;DHT22;9163;48.818;8.976;2023-02-01T02:38:09;2.60;99.90
15937;DHT22;9163;48.818;8.976;2023-02-01T02:40:43;2.70;99.90
15937;DHT22;9163;48.818;8.976;2023-02-01T02:43:19;2.60;99.90
15937;DHT22;9163;48.818;8.976;2023-02-01T02:46:09;2.60;99.90
15937;DHT22;9163;48.818;8.976;2023-02-01T02:49:02;2.60;99.90
15937;DHT22;9163;48.818;8.976;2023-02-01T02:51:38;2.60;99.90
15937;DHT22;9163;48.818;8.976;2023-02-01T02:54:29;2.60;99.90
15937;DHT22;9163;48.818;8.976;2023-02-01T02:57:21;2.60;99.90
15937;DHT22;9163;48.818;8.976;2023-02-01T03:00:11;2.60;99.90
15937;DHT22;9163;48.818;8.976;2023-02-01T03:02:55;2.60;99.90
15937;DHT22;9163;48.818;8.976;2023-02-01T03:05:43;2.60;99.90
15937;DHT22;9163;48.818;8.976;2023-02-01T03:08:13;2.60;99.90
15937;DHT22;9163;48.818;8.976;2023-02-01T03:10:54;2.60;99.90
15937;DHT22;9163;48.818;8.976;2023-02-01T03:13:31;2.60;99.90
15937;DHT22;9163;48.818;8.976;2023-02-01T03:16:02;2.60;99.90
15937;DHT22;9163;48.818;8.976;2023-02-01T03:18:36;2.60;99.90
15937;DHT22;9163;48.818;8.976;2023-02-01T03:21:08;2.60;99.90
15937;DHT22;9163;48.818;8.976;2023-02-01T03:23:39;2.60;99.90
15937;DHT22;9163;48.818;8.976;2023-02-01T03:26:10;2.60;99.90
15937;DHT22;9163;48.818;8.976;2023-02-01T03:28:39;2.50;99.90
15937;DHT22;9163;48.818;8.976;2023-02-01T03:31:09;2.50;99.90
15937;DHT22;9163;48.818;8.976;2023-02-01T03:33:36;2.50;99.90
15937;DHT22;9163;48.818;8.976;2023-02-01T03:36:15;2.50;99.90
15937;DHT22;9163;48.818;8.976;2023-02-01T03:38:50;2.50;99.90
15937;DHT22;9163;48.818;8.976;2023-02-01T03:41:24;2.50;99.90
15937;DHT22;9163;48.818;8.976;2023-02-01T03:43:56;2.50;99.90
15937;DHT22;9163;48.818;8.976;2023-02-01T03:46:29;2.40;99.90
15937;DHT22;9163;48.818;8.976;2023-02-01T03:49:02;2.40;99.90
15937;DHT22;9163;48.818;8.976;2023-02-01T03:51:31;2.40;99.90
15937;DHT22;9163;48.818;8.976;2023-02-01T03:54:01;2.40;99.90
15937;DHT22;9163;48.818;8.976;2023-02-01T03:56:31;2.40;99.90
15937;DHT22;9163;48.818;8.976;2023-02-01T03:58:58;2.50;99.90
15937;DHT22;9163;48.818;8.976;2023-02-01T04:01:27;2.50;99.90
15937;DHT22;9163;48.818;8.976;2023-02-01T04:03:55;2.50;99.90
15937;DHT22;9163;48.818;8.976;2023-02-01T04:06:22;2.50;99.90
15937;DHT22;9163;48.818;8.976;2023-02-01T04:08:50;2.50;99.90
15937;DHT22;9163;48.818;8.976;2023-02-01T04:11:18;2.50;99.90
15937;DHT22;9163;48.818;8.976;2023-02-01T04:13:46;2.60;99.90
15937;DHT22;9163;48.818;8.976;2023-02-01T04:16:13;2.70;99.90
15937;DHT22;9163;48.818;8.976;2023-02-01T04:18:40;2.70;99.90
15937;DHT22;9163;48.818;8.976;2023-02-01T04:21:07;2.80;99.90
15937;DHT22;9163;48.818;8.976;2023-02-01T04:23:34;2.90;99.90
15937;DHT22;9163;48.818;8.976;2023-02-01T04:26:03;3.00;99.90
15937;DHT22;9163;48.818;8.976;2023-02-01T04:28:32;3.10;99.90
15937;DHT22;9163;48.818;8.976;2023-02-01T04:30:59;3.20;99.90
15937;DHT22;9163;48.818;8.976;2023-02-01T04:33:26;3.30;99.90
15937;DHT22;9163;48.818;8.976;2023-02-01T04:35:53;3.40;99.90
15937;DHT22;9163;48.818;8.976;2023-02-01T04:38:20;3.40;99.90
15937;DHT22;9163;48.818;8.976;2023-02-01T04:40:48;3.40;99.90
15937;DHT22;9163;48.818;8.976;2023-02-01T04:43:16;3.40;99.90
15937;DHT22;9163;48.818;8.976;2023-02-01T04:45:48;3.50;99.90
15937;DHT22;9163;48.818;8.976;2023-02-01T04:48:15;3.50;99.90
15937;DHT22;9163;48.818;8.976;2023-02-01T04:50:44;3.60;99.90
15937;DHT22;9163;48.818;8.976;2023-02-01T04:53:13;3.60;99.90
15937;DHT22;9163;48.818;8.976;2023-02-01T04:55:41;3.60;99.90
15937;DHT22;9163;48.818;8.976;2023-02-01T04:58:09;3.60;99.90
15937;DHT22;9163;48.818;8.976;2023-02-01T05:00:36;3.60;99.90
15937;DHT22;9163;48.818;8.976;2023-02-01T05:03:05;3.60;99.90
15937;DHT22;9163;48.818;8.976;2023-02-01T05:05:32;3.60;99.90
15937;DHT22;9163;48.818;8.976;2023-02-01T05:07:59;3.70;99.90
15937;DHT22;9163;48.818;8.976;2023-02-01T05:10:27;3.70;99.90
15937;DHT22;9163;48.818;8.976;2023-02-01T05:12:54;3.80;99.90
15937;DHT22;9163;48.818;8.976;2023-02-01T05:15:39;3.80;99.90
15937;DHT22;9163;48.818;8.976;2023-02-01T05:18:07;3.80;99.90
15937;DHT22;9163;48.818;8.976;2023-02-01T05:20:34;3.80;99.90
15937;DHT22;9163;48.818;8.976;2023-02-01T05:23:02;3.80;99.90
15937;DHT22;9163;48.818;8.976;2023-02-01T05:25:29;3.80;99.90
15937;DHT22;9163;48.818;8.976;2023-02-01T05:27:56;3.90;99.90
15937;DHT22;9163;48.818;8.976;2023-02-01T05:30:23;3.90;99.90
15937;DHT22;9163;48.818;8.976;2023-02-01T05:32:51;3.90;99.90
15937;DHT22;9163;48.818;8.976;2023-02-01T05:35:20;4.00;99.90
15937;DHT22;9163;48.818;8.976;2023-02-01T05:37:47;4.00;99.90
15937;DHT22;9163;48.818;8.976;2023-02-01T05:40:14;4.00;99.90
15937;DHT22;9163;48.818;8.976;2023-02-01T05:42:41;4.00;99.90
15937;DHT22;9163;48.818;8.976;2023-02-01T05:45:09;4.00;99.90
15937;DHT22;9163;48.818;8.976;2023-02-01T05:47:36;3.90;99.90
15937;DHT22;9163;48.818;8.976;2023-02-01T05:50:06;3.90;99.90
15937;DHT22;9163;48.818;8.976;2023-02-01T05:52:35;3.70;99.90
15937;DHT22;9163;48.818;8.976;2023-02-01T05:55:02;3.70;99.90
15937;DHT22;9163;48.818;8.976;2023-02-01T05:57:29;3.60;99.90
15937;DHT22;9163;48.818;8.976;2023-02-01T05:59:56;3.70;99.90
15937;DHT22;9163;48.818;8.976;2023-02-01T06:02:24;3.70;99.90
15937;DHT22;9163;48.818;8.976;2023-02-01T06:04:51;3.70;99.90
15937;DHT22;9163;48.818;8.976;2023-02-01T06:07:18;3.70;99.90
15937;DHT22;9163;48.818;8.976;2023-02-01T06:09:47;3.80;99.90
15937;DHT22;9163;48.818;8.976;2023-02-01T06:12:14;3.80;99.90
15937;DHT22;9163;48.818;8.976;2023-02-01T06:14:41;3.80;99.90
15937;DHT22;9163;48.818;8.976;2023-02-01T06:17:09;3.90;99.90
15937;DHT22;9163;48.818;8.976;2023-02-01T06:19:36;3.90;99.90
15937;DHT22;9163;48.818;8.976;2023-02-01T06:22:04;3.90;99.90
15937;DHT22;9163;48.818;8.976;2023-02-01T06:24:32;3.90;99.90
15937;DHT22;9163;48.818;8.976;2023-02-01T06:27:00;3.90;99.90
15937;DHT22;9163;48.818;8.976;2023-02-01T06:29:28;3.90;99.90
15937;DHT22;9163;48.818;8.976;2023-02-01T06:31:55;3.90;99.90
15937;DHT22;9163;48.818;8.976;2023-02-01T06:34:22;3.90;99.90
15937;DHT22;9163;48.818;8.976;2023-02-01T06:36:50;3.90;99.90
15937;DHT22;9163;48.818;8.976;2023-02-01T06:39:17;4.00;99.90
15937;DHT22;9163;48.818;8.976;2023-02-01T06:41:46;4.00;99.90
15937;DHT22;9163;48.818;8.976;2023-02-01T06:44:14;4.00;99.90
15937;DHT22;9163;48.818;8.976;2023-02-01T06:46:42;4.00;99.90
15937;DHT22;9163;48.818;8.976;2023-02-01T06:49:09;4.00;99.90
15937;DHT22;9163;48.818;8.976;2023-02-01T06:51:36;4.00;99.90
15937;DHT22;9163;48.818;8.976;2023-02-01T06:54:03;4.00;99.90
15937;DHT22;9163;48.818;8.976;2023-02-01T06:56:31;3.90;99.90
15937;DHT22;9163;48.818;8.976;2023-02-01T06:58:58;3.90;99.90
15937;DHT22;9163;48.818;8.976;2023-02-01T07:01:27;3.90;99.90
15937;DHT22;9163;48.818;8.976;2023-02-01T07:03:54;4.00;99.90
15937;DHT22;9163;48.818;8.976;2023-02-01T07:06:22;4.00;99.90
15937;DHT22;9163;48.818;8.976;2023-02-01T07:08:49;4.10;99.90
15937;DHT22;9163;48.818;8.976;2023-02-01T07:11:18;4.10;99.90
15937;DHT22;9163;48.818;8.976;2023-02-01T07:13:45;4.10;99.90
15937;DHT22;9163;48.818;8.976;2023-02-01T07:16:14;4.10;99.90
15937;DHT22;9163;48.818;8.976;2023-02-01T07:18:43;4.10;99.90
15937;DHT22;9163;48.818;8.976;2023-02-01T07:21:11;4.10;99.90
15937;DHT22;9163;48.818;8.976;2023-02-01T07:23:39;4.10;99.90
15937;DHT22;9163;48.818;8.976;2023-02-01T07:26:09;4.10;99.90
15937;DHT22;9163;48.818;8.976;2023-02-01T07:28:38;4.10;99.90
15937;DHT22;9163;48.818;8.976;2023-02-01T07:31:07;4.10;99.90
15937;DHT22;9163;48.818;8.976;2023-02-01T07:33:34;4.20;99.90
15937;DHT22;9163;48.818;8.976;2023-02-01T07:36:05;4.20;99.90
15937;DHT22;9163;48.818;8.976;2023-02-01T07:38:33;4.20;99.90
15937;DHT22;9163;48.818;8.976;2023-02-01T07:41:01;4.20;99.90
15937;DHT22;9163;48.818;8.976;2023-02-01T07:43:29;4.20;99.90
15937;DHT22;9163;48.818;8.976;2023-02-01T07:45:56;4.20;99.90
15937;DHT22;9163;48.818;8.976;2023-02-01T07:48:24;4.20;99.90
15937;DHT22;9163;48.818;8.976;2023-02-01T07:50:57;4.20;99.90
15937;DHT22;9163;48.818;8.976;2023-02-01T07:53:26;4.20;99.90
15937;DHT22;9163;48.818;8.976;2023-02-01T07:55:55;4.30;99.90
15937;DHT22;9163;48.818;8.976;2023-02-01T07:58:23;4.30;99.90
15937;DHT22;9163;48.818;8.976;2023-02-01T08:00:50;4.30;99.90
15937;DHT22;9163;48.818;8.976;2023-02-01T08:03:35;4.40;99.90
15937;DHT22;9163;48.818;8.976;2023-02-01T08:06:02;4.30;99.90
15937;DHT22;9163;48.818;8.976;2023-02-01T08:08:31;4.30;99.90
15937;DHT22;9163;48.818;8.976;2023-02-01T08:10:59;4.30;99.90
15937;DHT22;9163;48.818;8.976;2023-02-01T08:13:26;4.30;99.90
15937;DHT22;9163;48.818;8.976;2023-02-01T08:15:57;4.40;99.90
15937;DHT22;9163;48.818;8.976;2023-02-01T08:18:25;4.40;99.90
15937;DHT22;9163;48.818;8.976;2023-02-01T08:20:52;4.40;99.90
15937;DHT22;9163;48.818;8.976;2023-02-01T08:23:19;4.40;99.90
15937;DHT22;9163;48.818;8.976;2023-02-01T08:25:48;4.50;99.90
15937;DHT22;9163;48.818;8.976;2023-02-01T08:28:16;4.50;99.90
15937;DHT22;9163;48.818;8.976;2023-02-01T08:30:43;4.60;99.90
15937;DHT22;9163;48.818;8.976;2023-02-01T08:33:10;4.60;99.90
15937;DHT22;9163;48.818;8.976;2023-02-01T08:35:38;4.60;99.90
15937;DHT22;9163;48.818;8.976;2023-02-01T08:38:05;4.70;99.90
15937;DHT22;9163;48.818;8.976;2023-02-01T08:40:32;4.70;99.90
15937;DHT22;9163;48.818;8.976;2023-02-01T08:43:01;4.70;99.90
15937;DHT22;9163;48.818;8.976;2023-02-01T08:45:29;4.70;99.90
15937;DHT22;9163;48.818;8.976;2023-02-01T08:47:56;4.80;99.90
15937;DHT22;9163;48.818;8.976;2023-02-01T08:50:24;4.70;99.90
15937;DHT22;9163;48.818;8.976;2023-02-01T08:52:52;4.70;99.90
15937;DHT22;9163;48.818;8.976;2023-02-01T08:55:20;4.70;99.90
15937;DHT22;9163;48.818;8.976;2023-02-01T08:57:47;4.70;99.90
15937;DHT22;9163;48.818;8.976;2023-02-01T09:00:17;4.70;99.90
15937;DHT22;9163;48.818;8.976;2023-02-01T09:02:44;4.70;99.90
15937;DHT22;9163;48.818;8.976;2023-02-01T09:05:12;4.60;99.90
15937;DHT22;9163;48.818;8.976;2023-02-01T09:07:40;4.60;99.90
15937;DHT22;9163;48.818;8.976;2023-02-01T09:10:08;4.60;99.90
15937;DHT22;9163;48.818;8.976;2023-02-01T09:12:35;4.60;99.90
15937;DHT22;9163;48.818;8.976;2023-02-01T09:15:04;4.60;99.90
15937;DHT22;9163;48.818;8.976;2023-02-01T09:17:34;4.50;99.90
15937;DHT22;9163;48.818;8.976;2023-02-01T09:20:02;4.60;99.90
15937;DHT22;9163;48.818;8.976;2023-02-01T09:22:29;4.60;99.90
15937;DHT22;9163;48.818;8.976;2023-02-01T09:24:56;4.60;99.90
15937;DHT22;9163;48.818;8.976;2023-02-01T09:27:23;4.70;99.90
15937;DHT22;9163;48.818;8.976;2023-02-01T09:29:51;4.80;99.90
15937;DHT22;9163;48.818;8.976;2023-02-01T09:32:19;5.20;99.90
15937;DHT22;9163;48.818;8.976;2023-02-01T09:34:48;5.30;99.90
15937;DHT22;9163;48.818;8.976;2023-02-01T09:37:16;5.30;99.90
15937;DHT22;9163;48.818;8.976;2023-02-01T09:39:43;5.30;99.90
15937;DHT22;9163;48.818;8.976;2023-02-01T09:42:19;5.30;99.90
15937;DHT22;9163;48.818;8.976;2023-02-01T09:45:14;5.10;99.90
15937;DHT22;9163;48.818;8.976;2023-02-01T09:47:48;5.10;99.90
15937;DHT22;9163;48.818;8.976;2023-02-01T09:50:21;5.40;99.90
15937;DHT22;9163;48.818;8.976;2023-02-01T09:52:54;5.60;99.90
15937;DHT22;9163;48.818;8.976;2023-02-01T09:55:29;5.60;99.90
15937;DHT22;9163;48.818;8.976;2023-02-01T09:58:01;5.50;99.90
15937;DHT22;9163;48.818;8.976;2023-02-01T10:00:31;5.50;99.90
15937;DHT22;9163;48.818;8.976;2023-02-01T10:03:00;5.40;99.90
15937;DHT22;9163;48.818;8.976;2023-02-01T10:05:43;5.30;99.90
15937;DHT22;9163;48.818;8.976;2023-02-01T10:08:20;5.20;99.90
15937;DHT22;9163;48.818;8.976;2023-02-01T10:10:55;5.10;99.90
15937;DHT22;9163;48.818;8.976;2023-02-01T10:13:42;5.30;99.90
15937;DHT22;9163;48.818;8.976;2023-02-01T10:16:17;5.50;99.90
15937;DHT22;9163;48.818;8.976;2023-02-01T10:18:57;6.40;99.90
15937;DHT22;9163;48.818;8.976;2023-02-01T10:21:39;6.40;99.90
15937;DHT22;9163;48.818;8.976;2023-02-01T10:24:41;6.10;99.90
15937;DHT22;9163;48.818;8.976;2023-02-01T10:27:14;6.00;99.90
15937;DHT22;9163;48.818;8.976;2023-02-01T10:29:45;5.90;99.90
15937;DHT22;9163;48.818;8.976;2023-02-01T10:32:15;5.80;99.90
15937;DHT22;9163;48.818;8.976;2023-02-01T10:34:45;5.70;99.90
15937;DHT22;9163;48.818;8.976;2023-02-01T10:37:24;5.80;99.90
15937;DHT22;9163;48.818;8.976;2023-02-01T10:39:54;5.90;99.90
15937;DHT22;9163;48.818;8.976;2023-02-01T10:42:25;6.00;99.90
15937;DHT22;9163;48.818;8.976;2023-02-01T10:44:55;6.00;99.90
15937;DHT22;9163;48.818;8.976;2023-02-01T10:47:23;5.80;99.90
15937;DHT22;9163;48.818;8.976;2023-02-01T10:49:55;5.80;99.90
15937;DHT22;9163;48.818;8.976;2023-02-01T10:52:33;5.60;99.90
15937;DHT22;9163;48.818;8.976;2023-02-01T10:55:30;5.40;99.90
15937;DHT22;9163;48.818;8.976;2023-02-01T10:58:00;5.40;99.90
15937;DHT22;9163;48.818;8.976;2023-02-01T11:00:28;5.40;99.90
15937;DHT22;9163;48.818;8.976;2023-02-01T11:03:03;5.40;99.90
15937;DHT22;9163;48.818;8.976;2023-02-01T11:05:47;5.90;99.90
15937;DHT22;9163;48.818;8.976;2023-02-01T11:08:17;5.90;99.90
15937;DHT22;9163;48.818;8.976;2023-02-01T11:10:45;6.20;99.90
15937;DHT22;9163;48.818;8.976;2023-02-01T11:13:14;6.30;99.90
15937;DHT22;9163;48.818;8.976;2023-02-01T11:15:44;5.90;99.90
15937;DHT22;9163;48.818;8.976;2023-02-01T11:18:17;6.20;99.90
15937;DHT22;9163;48.818;8.976;2023-02-01T11:20:46;6.90;99.90
15937;DHT22;9163;48.818;8.976;2023-02-01T11:23:21;7.20;99.90
15937;DHT22;9163;48.818;8.976;2023-02-01T11:25:50;7.50;99.90
15937;DHT22;9163;48.818;8.976;2023-02-01T11:28:19;8.10;99.90
15937;DHT22;9163;48.818;8.976;2023-02-01T11:30:48;7.90;99.90
15937;DHT22;9163;48.818;8.976;2023-02-01T11:33:17;7.90;99.90
15937;DHT22;9163;48.818;8.976;2023-02-01T11:35:46;7.30;99.90
15937;DHT22;9163;48.818;8.976;2023-02-01T11:38:22;7.00;99.90
15937;DHT22;9163;48.818;8.976;2023-02-01T11:40:49;6.50;99.90
15937;DHT22;9163;48.818;8.976;2023-02-01T11:43:22;6.50;99.90
15937;DHT22;9163;48.818;8.976;2023-02-01T11:45:55;6.70;99.90
15937;DHT22;9163;48.818;8.976;2023-02-01T11:48:24;7.80;99.90
15937;DHT22;9163;48.818;8.976;2023-02-01T11:51:13;8.00;99.90
15937;DHT22;9163;48.818;8.976;2023-02-01T11:56:54;6.50;99.90
15937;DHT22;9163;48.818;8.976;2023-02-01T12:02:41;5.70;99.90
15937;DHT22;9163;48.818;8.976;2023-02-01T12:05:24;5.50;99.90
15937;DHT22;9163;48.818;8.976;2023-02-01T12:08:13;5.50;99.90
15937;DHT22;9163;48.818;8.976;2023-02-01T12:10:54;5.60;99.90
15937;DHT22;9163;48.818;8.976;2023-02-01T12:13:34;5.90;99.90
15937;DHT22;9163;48.818;8.976;2023-02-01T12:16:15;6.20;99.90
15937;DHT22;9163;48.818;8.976;2023-02-01T12:19:00;5.90;99.90
15937;DHT22;9163;48.818;8.976;2023-02-01T12:21:55;5.70;99.90
15937;DHT22;9163;48.818;8.976;2023-02-01T12:24:42;5.50;99.90
15937;DHT22;9163;48.818;8.976;2023-02-01T12:27:44;5.40;99.90
15937;DHT22;9163;48.818;8.976;2023-02-01T12:30:27;5.20;99.90
15937;DHT22;9163;48.818;8.976;2023-02-01T12:33:06;5.20;99.90
15937;DHT22;9163;48.818;8.976;2023-02-01T12:35:48;5.20;99.90
15937;DHT22;9163;48.818;8.976;2023-02-01T12:38:31;5.10;99.90
15937;DHT22;9163;48.818;8.976;2023-02-01T12:41:10;5.10;99.90
15937;DHT22;9163;48.818;8.976;2023-02-01T12:43:46;5.10;99.90
15937;DHT22;9163;48.818;8.976;2023-02-01T12:46:19;5.00;99.90
15937;DHT22;9163;48.818;8.976;2023-02-01T12:48:56;4.90;99.90
15937;DHT22;9163;48.818;8.976;2023-02-01T12:51:27;4.90;99.90
15937;DHT22;9163;48.818;8.976;2023-02-01T12:56:43;4.80;99.90
15937;DHT22;9163;48.818;8.976;2023-02-01T12:59:19;4.80;99.90
15937;DHT22;9163;48.818;8.976;2023-02-01T13:01:51;4.70;99.90
15937;DHT22;9163;48.818;8.976;2023-02-01T13:04:27;4.70;99.90
15937;DHT22;9163;48.818;8.976;2023-02-01T13:07:02;4.80;99.90
15937;DHT22;9163;48.818;8.976;2023-02-01T13:09:37;4.80;99.90
15937;DHT22;9163;48.818;8.976;2023-02-01T13:12:11;4.80;99.90
15937;DHT22;9163;48.818;8.976;2023-02-01T13:14:44;4.80;99.90
15937;DHT22;9163;48.818;8.976;2023-02-01T13:17:16;4.80;99.90
15937;DHT22;9163;48.818;8.976;2023-02-01T13:19:50;4.80;99.90
15937;DHT22;9163;48.818;8.976;2023-02-01T13:22:21;4.80;99.90
15937;DHT22;9163;48.818;8.976;2023-02-01T13:24:53;4.70;99.90
15937;DHT22;9163;48.818;8.976;2023-02-01T13:27:26;4.70;99.90
15937;DHT22;9163;48.818;8.976;2023-02-01T13:29:59;4.70;99.90
15937;DHT22;9163;48.818;8.976;2023-02-01T13:35:45;4.70;99.90
15937;DHT22;9163;48.818;8.976;2023-02-01T13:41:27;4.60;99.90
15937;DHT22;9163;48.818;8.976;2023-02-01T13:43:56;4.60;99.90
15937;DHT22;9163;48.818;8.976;2023-02-01T13:46:26;4.50;99.90
15937;DHT22;9163;48.818;8.976;2023-02-01T13:48:56;4.50;99.90
15937;DHT22;9163;48.818;8.976;2023-02-01T13:51:35;4.40;99.90
15937;DHT22;9163;48.818;8.976;2023-02-01T13:54:04;4.40;99.90
15937;DHT22;9163;48.818;8.976;2023-02-01T13:56:40;4.40;99.90
15937;DHT22;9163;48.818;8.976;2023-02-01T13:59:36;4.50;99.90
15937;DHT22;9163;48.818;8.976;2023-02-01T14:02:45;4.50;99.90
15937;DHT22;9163;48.818;8.976;2023-02-01T14:08:23;4.60;99.90
15937;DHT22;9163;48.818;8.976;2023-02-01T14:10:53;4.60;99.90
15937;DHT22;9163;48.818;8.976;2023-02-01T14:13:27;4.70;99.90
15937;DHT22;9163;48.818;8.976;2023-02-01T14:16:11;4.60;99.90
15937;DHT22;9163;48.818;8.976;2023-02-01T14:18:59;4.60;99.90
15937;DHT22;9163;48.818;8.976;2023-02-01T14:21:29;4.60;99.90
15937;DHT22;9163;48.818;8.976;2023-02-01T14:23:59;4.70;99.90
15937;DHT22;9163;48.818;8.976;2023-02-01T14:26:41;4.70;99.90
15937;DHT22;9163;48.818;8.976;2023-02-01T14:29:26;4.70;99.90
15937;DHT22;9163;48.818;8.976;2023-02-01T14:32:02;4.70;99.90
15937;DHT22;9163;48.818;8.976;2023-02-01T14:34:38;4.70;99.90
15937;DHT22;9163;48.818;8.976;2023-02-01T14:37:11;4.70;99.90
15937;DHT22;9163;48.818;8.976;2023-02-01T14:39:52;4.70;99.90
15937;DHT22;9163;48.818;8.976;2023-02-01T14:42:29;4.70;99.90
15937;DHT22;9163;48.818;8.976;2023-02-01T14:48:41;4.60;99.90
15937;DHT22;9163;48.818;8.976;2023-02-01T14:51:13;4.60;99.90
15937;DHT22;9163;48.818;8.976;2023-02-01T14:53:41;4.60;99.90
15937;DHT22;9163;48.818;8.976;2023-02-01T14:56:14;4.70;99.90
15937;DHT22;9163;48.818;8.976;2023-02-01T14:58:45;4.60;99.90
15937;DHT22;9163;48.818;8.976;2023-02-01T15:01:18;4.70;99.90
15937;DHT22;9163;48.818;8.976;2023-02-01T15:03:52;4.70;99.90
15937;DHT22;9163;48.818;8.976;2023-02-01T15:06:28;4.70;99.90
15937;DHT22;9163;48.818;8.976;2023-02-01T15:08:59;4.80;99.90
15937;DHT22;9163;48.818;8.976;2023-02-01T15:11:27;4.80;99.90
15937;DHT22;9163;48.818;8.976;2023-02-01T15:13:54;4.80;99.90
15937;DHT22;9163;48.818;8.976;2023-02-01T15:16:24;4.80;99.90
15937;DHT22;9163;48.818;8.976;2023-02-01T15:19:07;4.80;99.90
15937;DHT22;9163;48.818;8.976;2023-02-01T15:21:44;4.80;99.90
15937;DHT22;9163;48.818;8.976;2023-02-01T15:24:13;4.80;99.90
15937;DHT22;9163;48.818;8.976;2023-02-01T15:26:41;4.80;99.90
15937;DHT22;9163;48.818;8.976;2023-02-01T15:29:12;4.80;99.90
15937;DHT22;9163;48.818;8.976;2023-02-01T15:31:41;4.90;99.90
15937;DHT22;9163;48.818;8.976;2023-02-01T15:34:10;4.90;99.90
15937;DHT22;9163;48.818;8.976;2023-02-01T15:36:38;5.10;99.90
15937;DHT22;9163;48.818;8.976;2023-02-01T15:39:18;5.40;99.90
15937;DHT22;9163;48.818;8.976;2023-02-01T15:41:53;5.40;99.90
15937;DHT22;9163;48.818;8.976;2023-02-01T15:44:33;5.40;99.90
15937;DHT22;9163;48.818;8.976;2023-02-01T15:47:07;5.40;99.90
15937;DHT22;9163;48.818;8.976;2023-02-01T15:49:38;5.20;99.90
15937;DHT22;9163;48.818;8.976;2023-02-01T15:52:19;5.10;99.90
15937;DHT22;9163;48.818;8.976;2023-02-01T15:54:52;5.00;99.90
15937;DHT22;9163;48.818;8.976;2023-02-01T15:57:22;5.00;99.90
15937;DHT22;9163;48.818;8.976;2023-02-01T15:59:56;4.90;99.90
15937;DHT22;9163;48.818;8.976;2023-02-01T16:02:26;4.80;99.90
15937;DHT22;9163;48.818;8.976;2023-02-01T16:04:54;4.80;99.90
15937;DHT22;9163;48.818;8.976;2023-02-01T16:07:26;4.80;99.90
15937;DHT22;9163;48.818;8.976;2023-02-01T16:09:57;4.80;99.90
15937;DHT22;9163;48.818;8.976;2023-02-01T16:12:30;4.80;99.90
15937;DHT22;9163;48.818;8.976;2023-02-01T16:14:57;4.80;99.90
15937;DHT22;9163;48.818;8.976;2023-02-01T16:17:25;4.80;99.90
15937;DHT22;9163;48.818;8.976;2023-02-01T16:19:52;4.80;99.90
15937;DHT22;9163;48.818;8.976;2023-02-01T16:22:20;4.80;99.90
15937;DHT22;9163;48.818;8.976;2023-02-01T16:24:47;4.70;99.90
15937;DHT22;9163;48.818;8.976;2023-02-01T16:27:16;4.70;99.90
15937;DHT22;9163;48.818;8.976;2023-02-01T16:29:44;4.70;99.90
15937;DHT22;9163;48.818;8.976;2023-02-01T16:32:16;4.70;99.90
15937;DHT22;9163;48.818;8.976;2023-02-01T16:34:45;4.70;99.90
15937;DHT22;9163;48.818;8.976;2023-02-01T16:37:13;4.70;99.90
15937;DHT22;9163;48.818;8.976;2023-02-01T16:39:42;4.70;99.90
15937;DHT22;9163;48.818;8.976;2023-02-01T16:42:11;4.70;99.90
15937;DHT22;9163;48.818;8.976;2023-02-01T16:44:40;4.70;99.90
15937;DHT22;9163;48.818;8.976;2023-02-01T16:47:12;4.70;99.90
15937;DHT22;9163;48.818;8.976;2023-02-01T16:49:41;4.70;99.90
15937;DHT22;9163;48.818;8.976;2023-02-01T16:52:14;4.60;99.90
15937;DHT22;9163;48.818;8.976;2023-02-01T16:54:43;4.70;99.90
15937;DHT22;9163;48.818;8.976;2023-02-01T16:57:14;4.70;99.90
15937;DHT22;9163;48.818;8.976;2023-02-01T16:59:46;4.70;99.90